sensor_id;sensor_type;location;lat;lon;timestamp;P1;durP1;ratioP1;P2;durP2;ratioP2
46723;SDS011;32463;48.298;11.620;2023-07-13T00:02:15;7.63;;;4.05;;
46723;SDS011;32463;48.298;11.620;2023-07-13T00:04:42;5.88;;;3.50;;
46723;SDS011;32463;48.298;11.620;2023-07-13T00:07:08;7.32;;;3.50;;
46723;SDS011;32463;48.298;11.620;2023-07-13T00:09:35;7.88;;;3.40;;
46723;SDS011;32463;48.298;11.620;2023-07-13T00:12:01;6.13;;;3.42;;
46723;SDS011;32463;48.298;11.620;2023-07-13T00:14:28;9.32;;;4.28;;
46723;SDS011;32463;48.298;11.620;2023-07-13T00:16:55;6.38;;;3.58;;
46723;SDS011;32463;48.298;11.620;2023-07-13T00:19:22;6.95;;;3.35;;
46723;SDS011;32463;48.298;11.620;2023-07-13T00:21:48;6.38;;;3.70;;
46723;SDS011;32463;48.298;11.620;2023-07-13T00:24:17;6.88;;;3.28;;
46723;SDS011;32463;48.298;11.620;2023-07-13T00:26:48;8.38;;;3.80;;
46723;SDS011;32463;48.298;11.620;2023-07-13T00:29:15;7.80;;;3.20;;
46723;SDS011;32463;48.298;11.620;2023-07-13T00:31:41;5.07;;;3.03;;
46723;SDS011;32463;48.298;11.620;2023-07-13T00:34:08;8.40;;;3.42;;
46723;SDS011;32463;48.298;11.620;2023-07-13T00:36:35;7.22;;;4.00;;
46723;SDS011;32463;48.298;11.620;2023-07-13T00:39:02;7.15;;;3.33;;
46723;SDS011;32463;48.298;11.620;2023-07-13T00:41:29;5.30;;;3.33;;
46723;SDS011;32463;48.298;11.620;2023-07-13T00:43:57;6.20;;;3.22;;
46723;SDS011;32463;48.298;11.620;2023-07-13T00:46:27;8.75;;;3.83;;
46723;SDS011;32463;48.298;11.620;2023-07-13T00:48:56;5.85;;;3.47;;
46723;SDS011;32463;48.298;11.620;2023-07-13T00:51:28;9.20;;;3.45;;
46723;SDS011;32463;48.298;11.620;2023-07-13T00:53:59;6.78;;;4.15;;
46723;SDS011;32463;48.298;11.620;2023-07-13T00:56:29;6.30;;;3.58;;
46723;SDS011;32463;48.298;11.620;2023-07-13T00:58:57;6.85;;;4.07;;
46723;SDS011;32463;48.298;11.620;2023-07-13T01:01:26;7.88;;;4.05;;
46723;SDS011;32463;48.298;11.620;2023-07-13T01:03:52;9.27;;;4.32;;
46723;SDS011;32463;48.298;11.620;2023-07-13T01:06:19;7.70;;;4.28;;
46723;SDS011;32463;48.298;11.620;2023-07-13T01:08:45;8.07;;;4.03;;
46723;SDS011;32463;48.298;11.620;2023-07-13T01:11:13;5.97;;;3.72;;
46723;SDS011;32463;48.298;11.620;2023-07-13T01:13:44;9.68;;;3.85;;
46723;SDS011;32463;48.298;11.620;2023-07-13T01:16:15;6.43;;;3.60;;
46723;SDS011;32463;48.298;11.620;2023-07-13T01:18:50;8.98;;;3.95;;
46723;SDS011;32463;48.298;11.620;2023-07-13T01:21:16;7.70;;;3.83;;
46723;SDS011;32463;48.298;11.620;2023-07-13T01:23:43;5.93;;;3.38;;
46723;SDS011;32463;48.298;11.620;2023-07-13T01:26:10;9.98;;;3.53;;
46723;SDS011;32463;48.298;11.620;2023-07-13T01:28:37;6.47;;;3.60;;
46723;SDS011;32463;48.298;11.620;2023-07-13T01:31:04;6.30;;;3.08;;
46723;SDS011;32463;48.298;11.620;2023-07-13T01:33:31;8.80;;;4.05;;
46723;SDS011;32463;48.298;11.620;2023-07-13T01:35:58;7.35;;;4.00;;
46723;SDS011;32463;48.298;11.620;2023-07-13T01:38:24;6.05;;;3.40;;
46723;SDS011;32463;48.298;11.620;2023-07-13T01:40:51;12.38;;;4.10;;
46723;SDS011;32463;48.298;11.620;2023-07-13T01:43:18;7.40;;;3.72;;
46723;SDS011;32463;48.298;11.620;2023-07-13T01:45:45;9.68;;;3.60;;
46723;SDS011;32463;48.298;11.620;2023-07-13T01:48:12;7.30;;;3.90;;
46723;SDS011;32463;48.298;11.620;2023-07-13T01:50:39;9.75;;;3.50;;
46723;SDS011;32463;48.298;11.620;2023-07-13T01:53:06;7.25;;;3.08;;
46723;SDS011;32463;48.298;11.620;2023-07-13T01:55:33;8.40;;;3.30;;
46723;SDS011;32463;48.298;11.620;2023-07-13T01:58:00;7.95;;;3.10;;
46723;SDS011;32463;48.298;11.620;2023-07-13T02:00:27;5.10;;;2.25;;
46723;SDS011;32463;48.298;11.620;2023-07-13T02:02:55;6.43;;;2.80;;
46723;SDS011;32463;48.298;11.620;2023-07-13T02:05:22;4.90;;;3.05;;
46723;SDS011;32463;48.298;11.620;2023-07-13T02:07:48;5.13;;;2.63;;
46723;SDS011;32463;48.298;11.620;2023-07-13T02:10:15;5.68;;;3.15;;
46723;SDS011;32463;48.298;11.620;2023-07-13T02:12:42;8.57;;;3.10;;
46723;SDS011;32463;48.298;11.620;2023-07-13T02:15:09;6.35;;;3.70;;
46723;SDS011;32463;48.298;11.620;2023-07-13T02:17:36;6.82;;;4.13;;
46723;SDS011;32463;48.298;11.620;2023-07-13T02:20:03;9.93;;;4.80;;
46723;SDS011;32463;48.298;11.620;2023-07-13T02:22:30;6.00;;;3.33;;
46723;SDS011;32463;48.298;11.620;2023-07-13T02:24:57;5.88;;;3.30;;
46723;SDS011;32463;48.298;11.620;2023-07-13T02:27:23;5.90;;;3.60;;
46723;SDS011;32463;48.298;11.620;2023-07-13T02:29:50;6.20;;;3.67;;
46723;SDS011;32463;48.298;11.620;2023-07-13T02:32:17;6.18;;;3.67;;
46723;SDS011;32463;48.298;11.620;2023-07-13T02:34:44;8.32;;;4.05;;
46723;SDS011;32463;48.298;11.620;2023-07-13T02:37:11;6.82;;;3.72;;
46723;SDS011;32463;48.298;11.620;2023-07-13T02:39:37;6.90;;;4.03;;
46723;SDS011;32463;48.298;11.620;2023-07-13T02:42:04;8.07;;;4.25;;
46723;SDS011;32463;48.298;11.620;2023-07-13T02:44:30;7.68;;;4.90;;
46723;SDS011;32463;48.298;11.620;2023-07-13T02:46:57;7.97;;;3.92;;
46723;SDS011;32463;48.298;11.620;2023-07-13T02:49:23;8.98;;;4.72;;
46723;SDS011;32463;48.298;11.620;2023-07-13T02:51:50;8.95;;;4.18;;
46723;SDS011;32463;48.298;11.620;2023-07-13T02:54:17;9.38;;;4.70;;
46723;SDS011;32463;48.298;11.620;2023-07-13T02:56:43;9.32;;;4.20;;
46723;SDS011;32463;48.298;11.620;2023-07-13T02:59:10;8.15;;;4.13;;
46723;SDS011;32463;48.298;11.620;2023-07-13T03:01:37;10.95;;;5.05;;
46723;SDS011;32463;48.298;11.620;2023-07-13T03:04:03;9.60;;;4.80;;
46723;SDS011;32463;48.298;11.620;2023-07-13T03:06:34;9.30;;;4.78;;
46723;SDS011;32463;48.298;11.620;2023-07-13T03:09:01;9.98;;;4.82;;
46723;SDS011;32463;48.298;11.620;2023-07-13T03:11:28;10.52;;;5.18;;
46723;SDS011;32463;48.298;11.620;2023-07-13T03:13:56;6.85;;;4.68;;
46723;SDS011;32463;48.298;11.620;2023-07-13T03:16:23;11.57;;;5.40;;
46723;SDS011;32463;48.298;11.620;2023-07-13T03:18:49;9.20;;;5.95;;
46723;SDS011;32463;48.298;11.620;2023-07-13T03:21:16;9.68;;;4.90;;
46723;SDS011;32463;48.298;11.620;2023-07-13T03:23:43;13.38;;;5.65;;
46723;SDS011;32463;48.298;11.620;2023-07-13T03:26:11;9.13;;;5.45;;
46723;SDS011;32463;48.298;11.620;2023-07-13T03:28:40;8.82;;;5.22;;
46723;SDS011;32463;48.298;11.620;2023-07-13T03:31:15;13.50;;;5.65;;
46723;SDS011;32463;48.298;11.620;2023-07-13T03:33:43;8.95;;;4.93;;
46723;SDS011;32463;48.298;11.620;2023-07-13T03:36:15;8.45;;;5.90;;
46723;SDS011;32463;48.298;11.620;2023-07-13T03:38:55;11.00;;;5.55;;
46723;SDS011;32463;48.298;11.620;2023-07-13T03:41:24;9.15;;;5.05;;
46723;SDS011;32463;48.298;11.620;2023-07-13T03:43:52;9.35;;;5.30;;
46723;SDS011;32463;48.298;11.620;2023-07-13T03:46:18;7.85;;;4.93;;
46723;SDS011;32463;48.298;11.620;2023-07-13T03:48:46;11.40;;;4.90;;
46723;SDS011;32463;48.298;11.620;2023-07-13T03:51:14;8.55;;;4.68;;
46723;SDS011;32463;48.298;11.620;2023-07-13T03:53:42;9.02;;;4.68;;
46723;SDS011;32463;48.298;11.620;2023-07-13T03:56:10;9.75;;;5.22;;
46723;SDS011;32463;48.298;11.620;2023-07-13T03:58:39;8.38;;;5.05;;
46723;SDS011;32463;48.298;11.620;2023-07-13T04:01:08;11.73;;;5.13;;
46723;SDS011;32463;48.298;11.620;2023-07-13T04:03:36;11.07;;;5.07;;
46723;SDS011;32463;48.298;11.620;2023-07-13T04:06:05;7.68;;;4.28;;
46723;SDS011;32463;48.298;11.620;2023-07-13T04:08:34;9.45;;;4.25;;
46723;SDS011;32463;48.298;11.620;2023-07-13T04:11:02;12.30;;;4.72;;
46723;SDS011;32463;48.298;11.620;2023-07-13T04:13:30;10.45;;;4.78;;
46723;SDS011;32463;48.298;11.620;2023-07-13T04:15:57;8.02;;;4.60;;
46723;SDS011;32463;48.298;11.620;2023-07-13T04:18:23;7.57;;;4.70;;
46723;SDS011;32463;48.298;11.620;2023-07-13T04:20:50;9.00;;;4.57;;
46723;SDS011;32463;48.298;11.620;2023-07-13T04:23:17;9.30;;;4.85;;
46723;SDS011;32463;48.298;11.620;2023-07-13T04:25:44;9.45;;;5.53;;
46723;SDS011;32463;48.298;11.620;2023-07-13T04:28:11;9.63;;;4.53;;
46723;SDS011;32463;48.298;11.620;2023-07-13T04:30:38;8.88;;;4.95;;
46723;SDS011;32463;48.298;11.620;2023-07-13T04:33:04;9.23;;;4.93;;
46723;SDS011;32463;48.298;11.620;2023-07-13T04:35:31;10.90;;;5.10;;
46723;SDS011;32463;48.298;11.620;2023-07-13T04:37:57;8.85;;;4.95;;
46723;SDS011;32463;48.298;11.620;2023-07-13T04:40:27;10.25;;;5.18;;
46723;SDS011;32463;48.298;11.620;2023-07-13T04:42:54;8.98;;;4.50;;
46723;SDS011;32463;48.298;11.620;2023-07-13T04:45:21;6.82;;;4.25;;
46723;SDS011;32463;48.298;11.620;2023-07-13T04:47:49;6.63;;;3.83;;
46723;SDS011;32463;48.298;11.620;2023-07-13T04:50:15;8.95;;;4.22;;
46723;SDS011;32463;48.298;11.620;2023-07-13T04:52:46;7.53;;;4.00;;
46723;SDS011;32463;48.298;11.620;2023-07-13T04:55:12;8.73;;;4.47;;
46723;SDS011;32463;48.298;11.620;2023-07-13T04:57:39;8.43;;;3.70;;
46723;SDS011;32463;48.298;11.620;2023-07-13T05:00:06;7.18;;;3.88;;
46723;SDS011;32463;48.298;11.620;2023-07-13T05:02:34;8.82;;;4.18;;
46723;SDS011;32463;48.298;11.620;2023-07-13T05:05:01;7.63;;;3.67;;
46723;SDS011;32463;48.298;11.620;2023-07-13T05:07:28;8.80;;;3.78;;
46723;SDS011;32463;48.298;11.620;2023-07-13T05:09:55;6.47;;;3.58;;
46723;SDS011;32463;48.298;11.620;2023-07-13T05:12:21;6.28;;;3.47;;
46723;SDS011;32463;48.298;11.620;2023-07-13T05:14:48;5.80;;;3.53;;
46723;SDS011;32463;48.298;11.620;2023-07-13T05:17:14;6.78;;;4.10;;
46723;SDS011;32463;48.298;11.620;2023-07-13T05:19:41;6.75;;;3.75;;
46723;SDS011;32463;48.298;11.620;2023-07-13T05:22:08;7.18;;;3.47;;
46723;SDS011;32463;48.298;11.620;2023-07-13T05:24:34;7.55;;;3.70;;
46723;SDS011;32463;48.298;11.620;2023-07-13T05:27:01;8.60;;;3.90;;
46723;SDS011;32463;48.298;11.620;2023-07-13T05:29:28;5.95;;;3.50;;
46723;SDS011;32463;48.298;11.620;2023-07-13T05:31:54;7.07;;;3.50;;
46723;SDS011;32463;48.298;11.620;2023-07-13T05:34:21;7.22;;;4.00;;
46723;SDS011;32463;48.298;11.620;2023-07-13T05:36:48;5.90;;;3.60;;
46723;SDS011;32463;48.298;11.620;2023-07-13T05:39:15;8.32;;;3.58;;
46723;SDS011;32463;48.298;11.620;2023-07-13T05:41:42;5.88;;;3.40;;
46723;SDS011;32463;48.298;11.620;2023-07-13T05:44:08;9.38;;;3.75;;
46723;SDS011;32463;48.298;11.620;2023-07-13T05:46:35;9.93;;;4.47;;
46723;SDS011;32463;48.298;11.620;2023-07-13T05:49:02;7.45;;;4.00;;
46723;SDS011;32463;48.298;11.620;2023-07-13T05:51:28;5.40;;;3.53;;
46723;SDS011;32463;48.298;11.620;2023-07-13T05:53:55;7.15;;;3.65;;
46723;SDS011;32463;48.298;11.620;2023-07-13T05:56:22;6.50;;;3.65;;
46723;SDS011;32463;48.298;11.620;2023-07-13T05:58:48;8.55;;;3.40;;
46723;SDS011;32463;48.298;11.620;2023-07-13T06:01:15;6.85;;;3.50;;
46723;SDS011;32463;48.298;11.620;2023-07-13T06:03:42;7.78;;;3.33;;
46723;SDS011;32463;48.298;11.620;2023-07-13T06:06:09;6.95;;;3.40;;
46723;SDS011;32463;48.298;11.620;2023-07-13T06:08:36;7.45;;;3.72;;
46723;SDS011;32463;48.298;11.620;2023-07-13T06:11:04;10.80;;;3.92;;
46723;SDS011;32463;48.298;11.620;2023-07-13T06:13:33;7.40;;;3.22;;
46723;SDS011;32463;48.298;11.620;2023-07-13T06:16:00;5.00;;;3.17;;
46723;SDS011;32463;48.298;11.620;2023-07-13T06:18:29;5.75;;;3.13;;
46723;SDS011;32463;48.298;11.620;2023-07-13T06:20:56;6.20;;;3.13;;
46723;SDS011;32463;48.298;11.620;2023-07-13T06:23:23;8.68;;;3.05;;
46723;SDS011;32463;48.298;11.620;2023-07-13T06:25:50;7.53;;;2.90;;
46723;SDS011;32463;48.298;11.620;2023-07-13T06:28:16;4.70;;;2.50;;
46723;SDS011;32463;48.298;11.620;2023-07-13T06:30:42;6.38;;;2.47;;
46723;SDS011;32463;48.298;11.620;2023-07-13T06:33:09;4.32;;;2.38;;
46723;SDS011;32463;48.298;11.620;2023-07-13T06:35:36;6.57;;;2.97;;
46723;SDS011;32463;48.298;11.620;2023-07-13T06:38:02;4.65;;;2.30;;
46723;SDS011;32463;48.298;11.620;2023-07-13T06:40:29;7.10;;;2.67;;
46723;SDS011;32463;48.298;11.620;2023-07-13T06:42:56;5.47;;;2.58;;
46723;SDS011;32463;48.298;11.620;2023-07-13T06:45:23;5.35;;;2.50;;
46723;SDS011;32463;48.298;11.620;2023-07-13T06:47:49;8.65;;;2.60;;
46723;SDS011;32463;48.298;11.620;2023-07-13T06:50:16;9.35;;;2.70;;
46723;SDS011;32463;48.298;11.620;2023-07-13T06:52:42;7.68;;;3.55;;
46723;SDS011;32463;48.298;11.620;2023-07-13T06:55:09;6.15;;;2.45;;
46723;SDS011;32463;48.298;11.620;2023-07-13T06:57:35;4.95;;;2.47;;
46723;SDS011;32463;48.298;11.620;2023-07-13T07:00:01;9.07;;;2.67;;
46723;SDS011;32463;48.298;11.620;2023-07-13T07:02:28;6.32;;;2.40;;
46723;SDS011;32463;48.298;11.620;2023-07-13T07:04:54;4.60;;;2.22;;
46723;SDS011;32463;48.298;11.620;2023-07-13T07:07:23;5.38;;;2.47;;
46723;SDS011;32463;48.298;11.620;2023-07-13T07:09:50;3.83;;;2.63;;
46723;SDS011;32463;48.298;11.620;2023-07-13T07:12:16;5.20;;;2.05;;
46723;SDS011;32463;48.298;11.620;2023-07-13T07:14:43;3.72;;;2.30;;
46723;SDS011;32463;48.298;11.620;2023-07-13T07:17:09;6.50;;;2.13;;
46723;SDS011;32463;48.298;11.620;2023-07-13T07:19:36;6.15;;;1.85;;
46723;SDS011;32463;48.298;11.620;2023-07-13T07:22:02;6.22;;;2.00;;
46723;SDS011;32463;48.298;11.620;2023-07-13T07:24:29;4.18;;;1.90;;
46723;SDS011;32463;48.298;11.620;2023-07-13T07:26:55;6.97;;;2.58;;
46723;SDS011;32463;48.298;11.620;2023-07-13T07:29:22;5.43;;;2.13;;
46723;SDS011;32463;48.298;11.620;2023-07-13T07:31:51;3.78;;;2.08;;
46723;SDS011;32463;48.298;11.620;2023-07-13T07:34:18;7.22;;;2.40;;
46723;SDS011;32463;48.298;11.620;2023-07-13T07:36:44;6.88;;;2.17;;
46723;SDS011;32463;48.298;11.620;2023-07-13T07:39:10;4.95;;;1.77;;
46723;SDS011;32463;48.298;11.620;2023-07-13T07:41:37;5.47;;;2.13;;
46723;SDS011;32463;48.298;11.620;2023-07-13T07:44:04;5.90;;;2.28;;
46723;SDS011;32463;48.298;11.620;2023-07-13T07:46:32;4.10;;;1.90;;
46723;SDS011;32463;48.298;11.620;2023-07-13T07:48:58;7.40;;;1.98;;
46723;SDS011;32463;48.298;11.620;2023-07-13T07:51:25;7.35;;;2.22;;
46723;SDS011;32463;48.298;11.620;2023-07-13T07:53:51;12.57;;;2.30;;
46723;SDS011;32463;48.298;11.620;2023-07-13T07:56:18;6.60;;;2.13;;
46723;SDS011;32463;48.298;11.620;2023-07-13T07:58:44;4.63;;;1.70;;
46723;SDS011;32463;48.298;11.620;2023-07-13T08:01:11;6.75;;;1.83;;
46723;SDS011;32463;48.298;11.620;2023-07-13T08:03:37;4.72;;;2.63;;
46723;SDS011;32463;48.298;11.620;2023-07-13T08:06:04;6.60;;;2.20;;
46723;SDS011;32463;48.298;11.620;2023-07-13T08:08:30;10.15;;;2.20;;
46723;SDS011;32463;48.298;11.620;2023-07-13T08:10:57;3.90;;;1.95;;
46723;SDS011;32463;48.298;11.620;2023-07-13T08:13:23;7.68;;;1.85;;
46723;SDS011;32463;48.298;11.620;2023-07-13T08:15:51;3.92;;;1.80;;
46723;SDS011;32463;48.298;11.620;2023-07-13T08:18:17;8.80;;;2.50;;
46723;SDS011;32463;48.298;11.620;2023-07-13T08:20:43;9.50;;;2.45;;
46723;SDS011;32463;48.298;11.620;2023-07-13T08:23:10;5.93;;;2.42;;
46723;SDS011;32463;48.298;11.620;2023-07-13T08:25:36;3.17;;;1.52;;
46723;SDS011;32463;48.298;11.620;2023-07-13T08:28:03;5.97;;;2.13;;
46723;SDS011;32463;48.298;11.620;2023-07-13T08:30:30;3.42;;;1.60;;
46723;SDS011;32463;48.298;11.620;2023-07-13T08:32:57;6.53;;;1.80;;
46723;SDS011;32463;48.298;11.620;2023-07-13T08:35:23;4.50;;;1.80;;
46723;SDS011;32463;48.298;11.620;2023-07-13T08:37:50;4.88;;;2.10;;
46723;SDS011;32463;48.298;11.620;2023-07-13T08:40:17;3.58;;;1.80;;
46723;SDS011;32463;48.298;11.620;2023-07-13T08:42:53;6.13;;;2.03;;
46723;SDS011;32463;48.298;11.620;2023-07-13T08:45:28;4.68;;;1.92;;
46723;SDS011;32463;48.298;11.620;2023-07-13T08:48:07;8.50;;;2.35;;
46723;SDS011;32463;48.298;11.620;2023-07-13T08:50:47;3.60;;;1.98;;
46723;SDS011;32463;48.298;11.620;2023-07-13T08:53:18;11.32;;;2.05;;
46723;SDS011;32463;48.298;11.620;2023-07-13T08:55:45;8.35;;;2.30;;
46723;SDS011;32463;48.298;11.620;2023-07-13T08:58:12;5.47;;;1.63;;
46723;SDS011;32463;48.298;11.620;2023-07-13T09:00:48;4.25;;;2.03;;
46723;SDS011;32463;48.298;11.620;2023-07-13T09:03:26;3.70;;;1.55;;
46723;SDS011;32463;48.298;11.620;2023-07-13T09:05:58;3.20;;;1.65;;
46723;SDS011;32463;48.298;11.620;2023-07-13T09:08:37;7.22;;;2.03;;
46723;SDS011;32463;48.298;11.620;2023-07-13T09:11:21;5.95;;;1.90;;
46723;SDS011;32463;48.298;11.620;2023-07-13T09:16:59;4.43;;;1.58;;
46723;SDS011;32463;48.298;11.620;2023-07-13T09:19:30;6.18;;;1.95;;
46723;SDS011;32463;48.298;11.620;2023-07-13T09:21:59;4.82;;;1.60;;
46723;SDS011;32463;48.298;11.620;2023-07-13T09:27:22;3.38;;;1.45;;
46723;SDS011;32463;48.298;11.620;2023-07-13T09:29:56;4.63;;;1.65;;
46723;SDS011;32463;48.298;11.620;2023-07-13T09:32:28;4.55;;;1.52;;
46723;SDS011;32463;48.298;11.620;2023-07-13T09:34:55;3.33;;;1.75;;
46723;SDS011;32463;48.298;11.620;2023-07-13T09:37:23;3.95;;;1.88;;
46723;SDS011;32463;48.298;11.620;2023-07-13T09:39:58;4.88;;;1.45;;
46723;SDS011;32463;48.298;11.620;2023-07-13T09:42:29;4.40;;;1.73;;
46723;SDS011;32463;48.298;11.620;2023-07-13T09:44:59;2.78;;;1.33;;
46723;SDS011;32463;48.298;11.620;2023-07-13T09:47:29;4.15;;;1.50;;
46723;SDS011;32463;48.298;11.620;2023-07-13T09:50:01;4.13;;;1.60;;
46723;SDS011;32463;48.298;11.620;2023-07-13T09:52:40;5.18;;;1.88;;
46723;SDS011;32463;48.298;11.620;2023-07-13T09:57:50;3.47;;;1.40;;
46723;SDS011;32463;48.298;11.620;2023-07-13T10:00:25;5.60;;;1.55;;
46723;SDS011;32463;48.298;11.620;2023-07-13T10:03:01;4.00;;;2.45;;
46723;SDS011;32463;48.298;11.620;2023-07-13T10:05:39;2.72;;;1.55;;
46723;SDS011;32463;48.298;11.620;2023-07-13T10:08:15;4.43;;;1.55;;
46723;SDS011;32463;48.298;11.620;2023-07-13T10:10:46;3.38;;;1.40;;
46723;SDS011;32463;48.298;11.620;2023-07-13T10:13:31;3.38;;;1.40;;
46723;SDS011;32463;48.298;11.620;2023-07-13T10:16:02;6.45;;;2.00;;
46723;SDS011;32463;48.298;11.620;2023-07-13T10:18:31;5.65;;;1.35;;
46723;SDS011;32463;48.298;11.620;2023-07-13T10:21:18;5.97;;;1.75;;
46723;SDS011;32463;48.298;11.620;2023-07-13T10:23:53;4.65;;;1.70;;
46723;SDS011;32463;48.298;11.620;2023-07-13T10:26:26;4.85;;;1.48;;
46723;SDS011;32463;48.298;11.620;2023-07-13T10:28:57;4.20;;;1.58;;
46723;SDS011;32463;48.298;11.620;2023-07-13T10:33:56;6.18;;;2.00;;
46723;SDS011;32463;48.298;11.620;2023-07-13T10:36:27;5.50;;;1.70;;
46723;SDS011;32463;48.298;11.620;2023-07-13T10:39:00;5.07;;;1.70;;
46723;SDS011;32463;48.298;11.620;2023-07-13T10:41:30;5.93;;;1.90;;
46723;SDS011;32463;48.298;11.620;2023-07-13T10:44:01;4.22;;;2.10;;
46723;SDS011;32463;48.298;11.620;2023-07-13T10:46:30;8.25;;;2.65;;
46723;SDS011;32463;48.298;11.620;2023-07-13T10:49:01;3.38;;;1.90;;
46723;SDS011;32463;48.298;11.620;2023-07-13T10:51:31;4.25;;;1.80;;
46723;SDS011;32463;48.298;11.620;2023-07-13T10:54:10;4.65;;;1.50;;
46723;SDS011;32463;48.298;11.620;2023-07-13T10:56:40;5.30;;;1.88;;
46723;SDS011;32463;48.298;11.620;2023-07-13T11:02:10;5.85;;;1.73;;
46723;SDS011;32463;48.298;11.620;2023-07-13T11:04:42;3.58;;;1.88;;
46723;SDS011;32463;48.298;11.620;2023-07-13T11:07:21;4.28;;;1.85;;
46723;SDS011;32463;48.298;11.620;2023-07-13T11:09:50;5.28;;;1.80;;
46723;SDS011;32463;48.298;11.620;2023-07-13T11:17:24;4.72;;;2.00;;
46723;SDS011;32463;48.298;11.620;2023-07-13T11:22:50;7.22;;;1.83;;
46723;SDS011;32463;48.298;11.620;2023-07-13T11:25:34;3.95;;;1.65;;
46723;SDS011;32463;48.298;11.620;2023-07-13T11:28:11;3.67;;;1.50;;
46723;SDS011;32463;48.298;11.620;2023-07-13T11:36:05;5.40;;;1.40;;
46723;SDS011;32463;48.298;11.620;2023-07-13T11:38:39;4.60;;;1.67;;
46723;SDS011;32463;48.298;11.620;2023-07-13T11:44:07;6.07;;;1.40;;
46723;SDS011;32463;48.298;11.620;2023-07-13T11:46:34;3.88;;;1.83;;
46723;SDS011;32463;48.298;11.620;2023-07-13T11:49:00;3.35;;;1.48;;
46723;SDS011;32463;48.298;11.620;2023-07-13T11:51:28;6.03;;;1.75;;
46723;SDS011;32463;48.298;11.620;2023-07-13T11:53:56;3.92;;;1.30;;
46723;SDS011;32463;48.298;11.620;2023-07-13T11:56:26;2.95;;;1.27;;
46723;SDS011;32463;48.298;11.620;2023-07-13T11:58:54;3.83;;;1.27;;
46723;SDS011;32463;48.298;11.620;2023-07-13T12:01:26;4.03;;;1.55;;
46723;SDS011;32463;48.298;11.620;2023-07-13T12:03:57;5.85;;;1.83;;
46723;SDS011;32463;48.298;11.620;2023-07-13T12:06:27;3.30;;;1.70;;
46723;SDS011;32463;48.298;11.620;2023-07-13T12:08:56;3.92;;;1.48;;
46723;SDS011;32463;48.298;11.620;2023-07-13T12:11:24;4.07;;;1.83;;
46723;SDS011;32463;48.298;11.620;2023-07-13T12:13:51;5.70;;;1.50;;
46723;SDS011;32463;48.298;11.620;2023-07-13T12:16:28;4.75;;;1.35;;
46723;SDS011;32463;48.298;11.620;2023-07-13T12:18:57;3.97;;;1.50;;
46723;SDS011;32463;48.298;11.620;2023-07-13T12:21:29;2.67;;;1.20;;
46723;SDS011;32463;48.298;11.620;2023-07-13T12:23:58;8.32;;;1.60;;
46723;SDS011;32463;48.298;11.620;2023-07-13T12:26:27;2.63;;;1.35;;
46723;SDS011;32463;48.298;11.620;2023-07-13T12:28:55;3.45;;;1.70;;
46723;SDS011;32463;48.298;11.620;2023-07-13T12:33:56;4.78;;;1.52;;
46723;SDS011;32463;48.298;11.620;2023-07-13T12:36:24;4.75;;;1.60;;
46723;SDS011;32463;48.298;11.620;2023-07-13T12:38:52;4.13;;;1.38;;
46723;SDS011;32463;48.298;11.620;2023-07-13T12:41:19;2.15;;;1.20;;
46723;SDS011;32463;48.298;11.620;2023-07-13T12:43:45;4.55;;;1.50;;
46723;SDS011;32463;48.298;11.620;2023-07-13T12:48:50;5.88;;;1.75;;
46723;SDS011;32463;48.298;11.620;2023-07-13T12:51:21;6.70;;;1.60;;
46723;SDS011;32463;48.298;11.620;2023-07-13T12:53:55;3.80;;;1.40;;
46723;SDS011;32463;48.298;11.620;2023-07-13T12:56:25;1.55;;;1.05;;
46723;SDS011;32463;48.298;11.620;2023-07-13T12:58:58;3.38;;;1.30;;
46723;SDS011;32463;48.298;11.620;2023-07-13T13:01:28;3.63;;;1.42;;
46723;SDS011;32463;48.298;11.620;2023-07-13T13:04:00;4.38;;;1.20;;
46723;SDS011;32463;48.298;11.620;2023-07-13T13:06:29;2.88;;;1.35;;
46723;SDS011;32463;48.298;11.620;2023-07-13T13:08:57;3.03;;;1.40;;
46723;SDS011;32463;48.298;11.620;2023-07-13T13:11:26;1.80;;;1.17;;
46723;SDS011;32463;48.298;11.620;2023-07-13T13:13:54;3.08;;;1.55;;
46723;SDS011;32463;48.298;11.620;2023-07-13T13:16:22;6.88;;;1.30;;
46723;SDS011;32463;48.298;11.620;2023-07-13T13:19:05;3.38;;;1.33;;
46723;SDS011;32463;48.298;11.620;2023-07-13T13:21:37;4.32;;;1.27;;
46723;SDS011;32463;48.298;11.620;2023-07-13T13:24:08;3.03;;;1.38;;
46723;SDS011;32463;48.298;11.620;2023-07-13T13:26:37;3.72;;;1.30;;
46723;SDS011;32463;48.298;11.620;2023-07-13T13:29:09;5.57;;;1.60;;
46723;SDS011;32463;48.298;11.620;2023-07-13T13:31:41;2.75;;;1.48;;
46723;SDS011;32463;48.298;11.620;2023-07-13T13:34:09;3.63;;;1.42;;
46723;SDS011;32463;48.298;11.620;2023-07-13T13:36:37;3.92;;;1.42;;
46723;SDS011;32463;48.298;11.620;2023-07-13T13:39:08;8.75;;;1.48;;
46723;SDS011;32463;48.298;11.620;2023-07-13T13:41:51;5.32;;;1.63;;
46723;SDS011;32463;48.298;11.620;2023-07-13T13:44:19;3.97;;;1.45;;
46723;SDS011;32463;48.298;11.620;2023-07-13T13:46:49;4.85;;;2.10;;
46723;SDS011;32463;48.298;11.620;2023-07-13T13:49:18;3.92;;;1.50;;
46723;SDS011;32463;48.298;11.620;2023-07-13T13:51:48;5.03;;;1.33;;
46723;SDS011;32463;48.298;11.620;2023-07-13T13:54:16;3.40;;;1.30;;
46723;SDS011;32463;48.298;11.620;2023-07-13T13:56:44;4.38;;;1.60;;
46723;SDS011;32463;48.298;11.620;2023-07-13T13:59:12;3.78;;;1.75;;
46723;SDS011;32463;48.298;11.620;2023-07-13T14:01:39;3.75;;;1.50;;
46723;SDS011;32463;48.298;11.620;2023-07-13T14:04:13;6.57;;;1.48;;
46723;SDS011;32463;48.298;11.620;2023-07-13T14:06:42;2.20;;;1.38;;
46723;SDS011;32463;48.298;11.620;2023-07-13T14:09:10;3.42;;;1.27;;
46723;SDS011;32463;48.298;11.620;2023-07-13T14:11:38;2.40;;;1.27;;
46723;SDS011;32463;48.298;11.620;2023-07-13T14:14:08;3.55;;;1.73;;
46723;SDS011;32463;48.298;11.620;2023-07-13T14:16:40;3.72;;;1.50;;
46723;SDS011;32463;48.298;11.620;2023-07-13T14:19:08;4.57;;;1.80;;
46723;SDS011;32463;48.298;11.620;2023-07-13T14:21:39;5.03;;;1.52;;
46723;SDS011;32463;48.298;11.620;2023-07-13T14:24:06;4.57;;;1.65;;
46723;SDS011;32463;48.298;11.620;2023-07-13T14:26:35;4.93;;;1.60;;
46723;SDS011;32463;48.298;11.620;2023-07-13T14:29:04;3.95;;;1.30;;
46723;SDS011;32463;48.298;11.620;2023-07-13T14:31:36;3.88;;;1.40;;
46723;SDS011;32463;48.298;11.620;2023-07-13T14:34:03;1.98;;;1.35;;
46723;SDS011;32463;48.298;11.620;2023-07-13T14:36:33;3.70;;;1.30;;
46723;SDS011;32463;48.298;11.620;2023-07-13T14:39:05;4.65;;;1.63;;
46723;SDS011;32463;48.298;11.620;2023-07-13T14:41:37;5.50;;;1.77;;
46723;SDS011;32463;48.298;11.620;2023-07-13T14:44:08;4.95;;;1.90;;
46723;SDS011;32463;48.298;11.620;2023-07-13T14:46:37;5.00;;;1.75;;
46723;SDS011;32463;48.298;11.620;2023-07-13T14:49:23;3.83;;;1.60;;
46723;SDS011;32463;48.298;11.620;2023-07-13T14:51:52;4.90;;;1.33;;
46723;SDS011;32463;48.298;11.620;2023-07-13T14:54:18;2.20;;;1.00;;
46723;SDS011;32463;48.298;11.620;2023-07-13T14:56:45;2.60;;;1.45;;
46723;SDS011;32463;48.298;11.620;2023-07-13T14:59:11;2.78;;;1.30;;
46723;SDS011;32463;48.298;11.620;2023-07-13T15:01:37;5.18;;;1.70;;
46723;SDS011;32463;48.298;11.620;2023-07-13T15:04:05;5.97;;;1.52;;
46723;SDS011;32463;48.298;11.620;2023-07-13T15:06:35;4.50;;;1.40;;
46723;SDS011;32463;48.298;11.620;2023-07-13T15:09:25;3.47;;;1.52;;
46723;SDS011;32463;48.298;11.620;2023-07-13T15:11:54;2.63;;;1.45;;
46723;SDS011;32463;48.298;11.620;2023-07-13T15:14:21;4.18;;;1.45;;
46723;SDS011;32463;48.298;11.620;2023-07-13T15:16:49;7.13;;;1.70;;
46723;SDS011;32463;48.298;11.620;2023-07-13T15:19:18;2.45;;;1.23;;